Aviation Digital Data Service (ADDS)

Output produced by METARs form (0348 UTC 06 December 2019)
found at http://www.aviationweather.gov/metar/data/
 
METAR text: KPNS 060253Z 09003KT 10SM CLR 12/08 A3015 RMK AO2 SLP210 T01170083 51005
Conditions at: KPNS (PENSACOLA , FL, US) observed 0253 UTC 06 December 2019
Temperature: 11.7°C (53°F)
Dewpoint: 8.3°C (47°F) [RH = 80%]
Pressure (altimeter): 30.15 inches Hg (1021.1 mb)
[Sea-level pressure: 1021.0 mb]
Winds: from the E (90 degrees) at 3 MPH (3 knots; 1.5 m/s)
Visibility: 10 or more miles (16+ km)
Ceiling: at least 12,000 feet AGL
Clouds: sky clear below 12,000 feet AGL
Weather: no significant weather observed at this time

METAR text: KPNS 060153Z 11004KT 10SM CLR 13/08 A3015 RMK AO2 SLP210 T01280078
Conditions at: KPNS (PENSACOLA , FL, US) observed 0153 UTC 06 December 2019
Temperature: 12.8°C (55°F)
Dewpoint: 7.8°C (46°F) [RH = 72%]
Pressure (altimeter): 30.15 inches Hg (1021.1 mb)
[Sea-level pressure: 1021.0 mb]
Winds: from the ESE (110 degrees) at 5 MPH (4 knots; 2.1 m/s)
Visibility: 10 or more miles (16+ km)
Ceiling: at least 12,000 feet AGL
Clouds: sky clear below 12,000 feet AGL
Weather: no significant weather observed at this time

METAR text: KPNS 060053Z 00000KT 10SM CLR 11/07 A3014 RMK AO2 SLP210 T01110067
Conditions at: KPNS (PENSACOLA , FL, US) observed 0053 UTC 06 December 2019
Temperature: 11.1°C (52°F)
Dewpoint: 6.7°C (44°F) [RH = 74%]
Pressure (altimeter): 30.14 inches Hg (1020.7 mb)
[Sea-level pressure: 1021.0 mb]
Winds: calm
Visibility: 10 or more miles (16+ km)
Ceiling: at least 12,000 feet AGL
Clouds: sky clear below 12,000 feet AGL
Weather: no significant weather observed at this time

METAR text: KPNS 052353Z AUTO 10003KT 10SM CLR 13/07 A3013 RMK AO2 SLP206 T01280072 10194 20128 51006
Conditions at: KPNS (PENSACOLA , FL, US) observed 2353 UTC 05 December 2019
Temperature: 12.8°C (55°F)
Dewpoint: 7.2°C (45°F) [RH = 69%]
Pressure (altimeter): 30.13 inches Hg (1020.4 mb)
[Sea-level pressure: 1020.6 mb]
Winds: from the E (100 degrees) at 3 MPH (3 knots; 1.5 m/s)
Visibility: 10 or more miles (16+ km)
Ceiling: at least 12,000 feet AGL
Clouds: sky clear below 12,000 feet AGL
Weather: automated observation with no human augmentation;
there may or may not be significant weather present at this time

METAR text: KPNS 052253Z 00000KT 10SM CLR 15/07 A3013 RMK AO2 SLP205 T01500072
Conditions at: KPNS (PENSACOLA , FL, US) observed 2253 UTC 05 December 2019
Temperature: 15.0°C (59°F)
Dewpoint: 7.2°C (45°F) [RH = 60%]
Pressure (altimeter): 30.13 inches Hg (1020.4 mb)
[Sea-level pressure: 1020.5 mb]
Winds: calm
Visibility: 10 or more miles (16+ km)
Ceiling: at least 12,000 feet AGL
Clouds: sky clear below 12,000 feet AGL
Weather: no significant weather observed at this time

METAR text: KPNS 052153Z 16006KT 10SM CLR 18/06 A3012 RMK AO2 SLP202 T01780061
Conditions at: KPNS (PENSACOLA , FL, US) observed 2153 UTC 05 December 2019
Temperature: 17.8°C (64°F)
Dewpoint: 6.1°C (43°F) [RH = 46%]
Pressure (altimeter): 30.12 inches Hg (1020.1 mb)
[Sea-level pressure: 1020.2 mb]
Winds: from the SSE (160 degrees) at 7 MPH (6 knots; 3.1 m/s)
Visibility: 10 or more miles (16+ km)
Ceiling: at least 12,000 feet AGL
Clouds: sky clear below 12,000 feet AGL
Weather: no significant weather observed at this time

METAR text: KPNS 052053Z 17006KT 10SM CLR 18/04 A3011 RMK AO2 SLP199 T01830044 55009
Conditions at: KPNS (PENSACOLA , FL, US) observed 2053 UTC 05 December 2019
Temperature: 18.3°C (65°F)
Dewpoint: 4.4°C (40°F) [RH = 40%]
Pressure (altimeter): 30.11 inches Hg (1019.7 mb)
[Sea-level pressure: 1019.9 mb]
Winds: from the S (170 degrees) at 7 MPH (6 knots; 3.1 m/s)
Visibility: 10 or more miles (16+ km)
Ceiling: at least 12,000 feet AGL
Clouds: sky clear below 12,000 feet AGL
Weather: no significant weather observed at this time

METAR text: KPNS 051953Z 16006KT 10SM CLR 19/02 A3011 RMK AO2 SLP198 T01890022
Conditions at: KPNS (PENSACOLA , FL, US) observed 1953 UTC 05 December 2019
Temperature: 18.9°C (66°F)
Dewpoint: 2.2°C (36°F) [RH = 33%]
Pressure (altimeter): 30.11 inches Hg (1019.7 mb)
[Sea-level pressure: 1019.8 mb]
Winds: from the SSE (160 degrees) at 7 MPH (6 knots; 3.1 m/s)
Visibility: 10 or more miles (16+ km)
Ceiling: at least 12,000 feet AGL
Clouds: sky clear below 12,000 feet AGL
Weather: no significant weather observed at this time

METAR text: KPNS 051853Z VRB04KT 10SM CLR 19/02 A3012 RMK AO2 SLP202 T01890022
Conditions at: KPNS (PENSACOLA , FL, US) observed 1853 UTC 05 December 2019
Temperature: 18.9°C (66°F)
Dewpoint: 2.2°C (36°F) [RH = 33%]
Pressure (altimeter): 30.12 inches Hg (1020.1 mb)
[Sea-level pressure: 1020.2 mb]
Winds: variable direction winds at 5 MPH (4 knots; 2.1 m/s)
Visibility: 10 or more miles (16+ km)
Ceiling: at least 12,000 feet AGL
Clouds: sky clear below 12,000 feet AGL
Weather: no significant weather observed at this time

METAR text: KPNS 051753Z 16006KT 10SM CLR 18/02 A3014 RMK AO2 SLP209 T01830022 10183 20050 58009 $
Conditions at: KPNS (PENSACOLA , FL, US) observed 1753 UTC 05 December 2019
Temperature: 18.3°C (65°F)
Dewpoint: 2.2°C (36°F) [RH = 34%]
Pressure (altimeter): 30.14 inches Hg (1020.7 mb)
[Sea-level pressure: 1020.9 mb]
Winds: from the SSE (160 degrees) at 7 MPH (6 knots; 3.1 m/s)
Visibility: 10 or more miles (16+ km)
Ceiling: at least 12,000 feet AGL
Clouds: sky clear below 12,000 feet AGL
Weather:
SOME DATA ABOVE MAY BE INACCURATE!!!
"$" is an indication the sensor requires maintenance

METAR text: KPNS 051653Z 00000KT 10SM CLR 17/04 A3018 RMK AO2 SLP220 T01720044 $
Conditions at: KPNS (PENSACOLA , FL, US) observed 1653 UTC 05 December 2019
Temperature: 17.2°C (63°F)
Dewpoint: 4.4°C (40°F) [RH = 43%]
Pressure (altimeter): 30.18 inches Hg (1022.1 mb)
[Sea-level pressure: 1022.0 mb]
Winds: calm
Visibility: 10 or more miles (16+ km)
Ceiling: at least 12,000 feet AGL
Clouds: sky clear below 12,000 feet AGL
Weather:
SOME DATA ABOVE MAY BE INACCURATE!!!
"$" is an indication the sensor requires maintenance

METAR text: KPNS 051553Z 00000KT 10SM CLR 16/04 A3018 RMK AO2 SLP223 T01610044 $
Conditions at: KPNS (PENSACOLA , FL, US) observed 1553 UTC 05 December 2019
Temperature: 16.1°C (61°F)
Dewpoint: 4.4°C (40°F) [RH = 46%]
Pressure (altimeter): 30.18 inches Hg (1022.1 mb)
[Sea-level pressure: 1022.3 mb]
Winds: calm
Visibility: 10 or more miles (16+ km)
Ceiling: at least 12,000 feet AGL
Clouds: sky clear below 12,000 feet AGL
Weather:
SOME DATA ABOVE MAY BE INACCURATE!!!
"$" is an indication the sensor requires maintenance

METAR text: KPNS 051453Z 02004KT 10SM CLR 15/04 A3017 RMK AO2 SLP218 T01500044 51024 $
Conditions at: KPNS (PENSACOLA , FL, US) observed 1453 UTC 05 December 2019
Temperature: 15.0°C (59°F)
Dewpoint: 4.4°C (40°F) [RH = 49%]
Pressure (altimeter): 30.17 inches Hg (1021.8 mb)
[Sea-level pressure: 1021.8 mb]
Winds: from the NNE (20 degrees) at 5 MPH (4 knots; 2.1 m/s)
Visibility: 10 or more miles (16+ km)
Ceiling: at least 12,000 feet AGL
Clouds: sky clear below 12,000 feet AGL
Weather:
SOME DATA ABOVE MAY BE INACCURATE!!!
"$" is an indication the sensor requires maintenance

METAR text: KPNS 051353Z 02004KT 10SM CLR 12/05 A3015 RMK AO2 SLP211 T01170050 $
Conditions at: KPNS (PENSACOLA , FL, US) observed 1353 UTC 05 December 2019
Temperature: 11.7°C (53°F)
Dewpoint: 5.0°C (41°F) [RH = 63%]
Pressure (altimeter): 30.15 inches Hg (1021.1 mb)
[Sea-level pressure: 1021.1 mb]
Winds: from the NNE (20 degrees) at 5 MPH (4 knots; 2.1 m/s)
Visibility: 10 or more miles (16+ km)
Ceiling: at least 12,000 feet AGL
Clouds: sky clear below 12,000 feet AGL
Weather:
SOME DATA ABOVE MAY BE INACCURATE!!!
"$" is an indication the sensor requires maintenance

METAR text: KPNS 051253Z 36005KT 10SM CLR 06/04 A3014 RMK AO2 SLP208 T00610044 $
Conditions at: KPNS (PENSACOLA , FL, US) observed 1253 UTC 05 December 2019
Temperature: 6.1°C (43°F)
Dewpoint: 4.4°C (40°F) [RH = 89%]
Pressure (altimeter): 30.14 inches Hg (1020.7 mb)
[Sea-level pressure: 1020.8 mb]
Winds: from the N (360 degrees) at 6 MPH (5 knots; 2.6 m/s)
Visibility: 10 or more miles (16+ km)
Ceiling: at least 12,000 feet AGL
Clouds: sky clear below 12,000 feet AGL
Weather:
SOME DATA ABOVE MAY BE INACCURATE!!!
"$" is an indication the sensor requires maintenance

METAR text: KPNS 051153Z 36003KT 10SM CLR 06/04 A3010 RMK AO2 SLP195 T00560039 10100 20056 53014 $
Conditions at: KPNS (PENSACOLA , FL, US) observed 1153 UTC 05 December 2019
Temperature: 5.6°C (42°F)
Dewpoint: 3.9°C (39°F) [RH = 89%]
Pressure (altimeter): 30.10 inches Hg (1019.4 mb)
[Sea-level pressure: 1019.5 mb]
Winds: from the N (360 degrees) at 3 MPH (3 knots; 1.5 m/s)
Visibility: 10 or more miles (16+ km)
Ceiling: at least 12,000 feet AGL
Clouds: sky clear below 12,000 feet AGL
Weather:
SOME DATA ABOVE MAY BE INACCURATE!!!
"$" is an indication the sensor requires maintenance

METAR text: KPNS 051053Z AUTO 36004KT 10SM CLR 07/05 A3008 RMK AO2 SLP188 T00720050 $
Conditions at: KPNS (PENSACOLA , FL, US) observed 1053 UTC 05 December 2019
Temperature: 7.2°C (45°F)
Dewpoint: 5.0°C (41°F) [RH = 86%]
Pressure (altimeter): 30.08 inches Hg (1018.7 mb)
[Sea-level pressure: 1018.8 mb]
Winds: from the N (360 degrees) at 5 MPH (4 knots; 2.1 m/s)
Visibility: 10 or more miles (16+ km)
Ceiling: at least 12,000 feet AGL
Clouds: sky clear below 12,000 feet AGL
Weather:
SOME DATA ABOVE MAY BE INACCURATE!!!
"$" is an indication the sensor requires maintenance

METAR text: KPNS 050953Z AUTO 01005KT 10SM CLR 08/05 A3006 RMK AO2 SLP183 T00830050 $
Conditions at: KPNS (PENSACOLA , FL, US) observed 0953 UTC 05 December 2019
Temperature: 8.3°C (47°F)
Dewpoint: 5.0°C (41°F) [RH = 80%]
Pressure (altimeter): 30.06 inches Hg (1018.0 mb)
[Sea-level pressure: 1018.3 mb]
Winds: from the N (10 degrees) at 6 MPH (5 knots; 2.6 m/s)
Visibility: 10 or more miles (16+ km)
Ceiling: at least 12,000 feet AGL
Clouds: sky clear below 12,000 feet AGL
Weather:
SOME DATA ABOVE MAY BE INACCURATE!!!
"$" is an indication the sensor requires maintenance

METAR text: KPNS 050853Z AUTO 36003KT 10SM CLR 07/06 A3006 RMK AO2 SLP180 T00670061 53002 $
Conditions at: KPNS (PENSACOLA , FL, US) observed 0853 UTC 05 December 2019
Temperature: 6.7°C (44°F)
Dewpoint: 6.1°C (43°F) [RH = 96%]
Pressure (altimeter): 30.06 inches Hg (1018.0 mb)
[Sea-level pressure: 1018.0 mb]
Winds: from the N (360 degrees) at 3 MPH (3 knots; 1.5 m/s)
Visibility: 10 or more miles (16+ km)
Ceiling: at least 12,000 feet AGL
Clouds: sky clear below 12,000 feet AGL
Weather:
SOME DATA ABOVE MAY BE INACCURATE!!!
"$" is an indication the sensor requires maintenance

METAR text: KPNS 050753Z AUTO 34004KT 10SM CLR 08/06 A3006 RMK AO2 SLP180 T00780061 $
Conditions at: KPNS (PENSACOLA , FL, US) observed 0753 UTC 05 December 2019
Temperature: 7.8°C (46°F)
Dewpoint: 6.1°C (43°F) [RH = 89%]
Pressure (altimeter): 30.06 inches Hg (1018.0 mb)
[Sea-level pressure: 1018.0 mb]
Winds: from the NNW (340 degrees) at 5 MPH (4 knots; 2.1 m/s)
Visibility: 10 or more miles (16+ km)
Ceiling: at least 12,000 feet AGL
Clouds: sky clear below 12,000 feet AGL
Weather:
SOME DATA ABOVE MAY BE INACCURATE!!!
"$" is an indication the sensor requires maintenance

METAR text: KPNS 050653Z AUTO 35005KT 10SM CLR 08/06 A3004 RMK AO2 SLP175 T00780056 $
Conditions at: KPNS (PENSACOLA , FL, US) observed 0653 UTC 05 December 2019
Temperature: 7.8°C (46°F)
Dewpoint: 5.6°C (42°F) [RH = 86%]
Pressure (altimeter): 30.04 inches Hg (1017.4 mb)
[Sea-level pressure: 1017.5 mb]
Winds: from the N (350 degrees) at 6 MPH (5 knots; 2.6 m/s)
Visibility: 10 or more miles (16+ km)
Ceiling: at least 12,000 feet AGL
Clouds: sky clear below 12,000 feet AGL
Weather:
SOME DATA ABOVE MAY BE INACCURATE!!!
"$" is an indication the sensor requires maintenance

METAR text: KPNS 050553Z AUTO 33005KT 10SM CLR 08/07 A3005 RMK AO2 SLP178 T00830067 10139 20072 402060050 50003 $
Conditions at: KPNS (PENSACOLA , FL, US) observed 0553 UTC 05 December 2019
Temperature: 8.3°C (47°F)
Dewpoint: 6.7°C (44°F) [RH = 90%]
Pressure (altimeter): 30.05 inches Hg (1017.7 mb)
[Sea-level pressure: 1017.8 mb]
Winds: from the NNW (330 degrees) at 6 MPH (5 knots; 2.6 m/s)
Visibility: 10 or more miles (16+ km)
Ceiling: at least 12,000 feet AGL
Clouds: sky clear below 12,000 feet AGL
Weather:
SOME DATA ABOVE MAY BE INACCURATE!!!
"$" is an indication the sensor requires maintenance

METAR text: KPNS 050453Z AUTO 33003KT 10SM CLR 11/07 A3005 RMK AO2 SLP178 T01110067 $
Conditions at: KPNS (PENSACOLA , FL, US) observed 0453 UTC 05 December 2019
Temperature: 11.1°C (52°F)
Dewpoint: 6.7°C (44°F) [RH = 74%]
Pressure (altimeter): 30.05 inches Hg (1017.7 mb)
[Sea-level pressure: 1017.8 mb]
Winds: from the NNW (330 degrees) at 3 MPH (3 knots; 1.5 m/s)
Visibility: 10 or more miles (16+ km)
Ceiling: at least 12,000 feet AGL
Clouds: sky clear below 12,000 feet AGL
Weather:
SOME DATA ABOVE MAY BE INACCURATE!!!
"$" is an indication the sensor requires maintenance

METAR text: KPNS 050353Z 00000KT 10SM CLR 12/06 A3005 RMK AO2 SLP178 T01170056 $
Conditions at: KPNS (PENSACOLA , FL, US) observed 0353 UTC 05 December 2019
Temperature: 11.7°C (53°F)
Dewpoint: 5.6°C (42°F) [RH = 66%]
Pressure (altimeter): 30.05 inches Hg (1017.7 mb)
[Sea-level pressure: 1017.8 mb]
Winds: calm
Visibility: 10 or more miles (16+ km)
Ceiling: at least 12,000 feet AGL
Clouds: sky clear below 12,000 feet AGL
Weather:
SOME DATA ABOVE MAY BE INACCURATE!!!
"$" is an indication the sensor requires maintenance

METAR text: KPNS 050253Z 00000KT 10SM CLR 12/06 A3004 RMK AO2 SLP175 T01170056 51016 $
Conditions at: KPNS (PENSACOLA , FL, US) observed 0253 UTC 05 December 2019
Temperature: 11.7°C (53°F)
Dewpoint: 5.6°C (42°F) [RH = 66%]
Pressure (altimeter): 30.04 inches Hg (1017.4 mb)
[Sea-level pressure: 1017.5 mb]
Winds: calm
Visibility: 10 or more miles (16+ km)
Ceiling: at least 12,000 feet AGL
Clouds: sky clear below 12,000 feet AGL
Weather:
SOME DATA ABOVE MAY BE INACCURATE!!!
"$" is an indication the sensor requires maintenance

METAR text: KPNS 050153Z 34004KT 10SM CLR 13/05 A3004 RMK AO2 SLP174 T01280050 $
Conditions at: KPNS (PENSACOLA , FL, US) observed 0153 UTC 05 December 2019
Temperature: 12.8°C (55°F)
Dewpoint: 5.0°C (41°F) [RH = 59%]
Pressure (altimeter): 30.04 inches Hg (1017.4 mb)
[Sea-level pressure: 1017.4 mb]
Winds: from the NNW (340 degrees) at 5 MPH (4 knots; 2.1 m/s)
Visibility: 10 or more miles (16+ km)
Ceiling: at least 12,000 feet AGL
Clouds: sky clear below 12,000 feet AGL
Weather:
SOME DATA ABOVE MAY BE INACCURATE!!!
"$" is an indication the sensor requires maintenance

METAR text: KPNS 050053Z 33004KT 10SM CLR 14/05 A3002 RMK AO2 SLP168 T01390050 $
Conditions at: KPNS (PENSACOLA , FL, US) observed 0053 UTC 05 December 2019
Temperature: 13.9°C (57°F)
Dewpoint: 5.0°C (41°F) [RH = 55%]
Pressure (altimeter): 30.02 inches Hg (1016.7 mb)
[Sea-level pressure: 1016.8 mb]
Winds: from the NNW (330 degrees) at 5 MPH (4 knots; 2.1 m/s)
Visibility: 10 or more miles (16+ km)
Ceiling: at least 12,000 feet AGL
Clouds: sky clear below 12,000 feet AGL
Weather:
SOME DATA ABOVE MAY BE INACCURATE!!!
"$" is an indication the sensor requires maintenance

METAR text: KPNS 042353Z 34005KT 9SM CLR 14/06 A2999 RMK AO2 SLP159 T01390056 10206 20139 53010 $
Conditions at: KPNS (PENSACOLA , FL, US) observed 2353 UTC 04 December 2019
Temperature: 13.9°C (57°F)
Dewpoint: 5.6°C (42°F) [RH = 57%]
Pressure (altimeter): 29.99 inches Hg (1015.7 mb)
[Sea-level pressure: 1015.9 mb]
Winds: from the NNW (340 degrees) at 6 MPH (5 knots; 2.6 m/s)
Visibility: 9 miles (14 km)
Ceiling: at least 12,000 feet AGL
Clouds: sky clear below 12,000 feet AGL
Weather:
SOME DATA ABOVE MAY BE INACCURATE!!!
"$" is an indication the sensor requires maintenance

METAR text: KPNS 042253Z 34003KT 10SM CLR 15/06 A2997 RMK AO2 SLP150 T01500056 $
Conditions at: KPNS (PENSACOLA , FL, US) observed 2253 UTC 04 December 2019
Temperature: 15.0°C (59°F)
Dewpoint: 5.6°C (42°F) [RH = 53%]
Pressure (altimeter): 29.97 inches Hg (1015.0 mb)
[Sea-level pressure: 1015.0 mb]
Winds: from the NNW (340 degrees) at 3 MPH (3 knots; 1.5 m/s)
Visibility: 10 or more miles (16+ km)
Ceiling: at least 12,000 feet AGL
Clouds: sky clear below 12,000 feet AGL
Weather:
SOME DATA ABOVE MAY BE INACCURATE!!!
"$" is an indication the sensor requires maintenance

METAR text: KPNS 042153Z 32006KT 10SM CLR 19/04 A2997 RMK AO2 SLP150 T01940044 $
Conditions at: KPNS (PENSACOLA , FL, US) observed 2153 UTC 04 December 2019
Temperature: 19.4°C (67°F)
Dewpoint: 4.4°C (40°F) [RH = 37%]
Pressure (altimeter): 29.97 inches Hg (1015.0 mb)
[Sea-level pressure: 1015.0 mb]
Winds: from the NW (320 degrees) at 7 MPH (6 knots; 3.1 m/s)
Visibility: 10 or more miles (16+ km)
Ceiling: at least 12,000 feet AGL
Clouds: sky clear below 12,000 feet AGL
Weather:
SOME DATA ABOVE MAY BE INACCURATE!!!
"$" is an indication the sensor requires maintenance

METAR text: KPNS 042053Z 29007KT 10SM CLR 20/05 A2996 RMK AO2 SLP148 T02000050 $
Conditions at: KPNS (PENSACOLA , FL, US) observed 2053 UTC 04 December 2019
Temperature: 20.0°C (68°F)
Dewpoint: 5.0°C (41°F) [RH = 37%]
Pressure (altimeter): 29.96 inches Hg (1014.6 mb)
[Sea-level pressure: 1014.8 mb]
Winds: from the WNW (290 degrees) at 8 MPH (7 knots; 3.6 m/s)
Visibility: 10 or more miles (16+ km)
Ceiling: at least 12,000 feet AGL
Clouds: sky clear below 12,000 feet AGL
Weather:
SOME DATA ABOVE MAY BE INACCURATE!!!
"$" is an indication the sensor requires maintenance

METAR text: KPNS 041953Z COR 32006KT 10SM CLR 20/06 A2996 RMK AO2 SLP149 T02000056 $
Conditions at: KPNS (PENSACOLA , FL, US) observed 1953 UTC 04 December 2019
Temperature: 20.0°C (68°F)
Dewpoint: 5.6°C (42°F) [RH = 39%]
Pressure (altimeter): 29.96 inches Hg (1014.6 mb)
[Sea-level pressure: 1014.9 mb]
Winds: from the NW (320 degrees) at 7 MPH (6 knots; 3.1 m/s)
Visibility: 10 or more miles (16+ km)
Ceiling: at least 12,000 feet AGL
Clouds: sky clear below 12,000 feet AGL
Weather:
SOME DATA ABOVE MAY BE INACCURATE!!!
"$" is an indication the sensor requires maintenance

METAR text: KPNS 041853Z 30011KT 10SM CLR 20/06 A2998 RMK AO2 SLP153 T02000056
Conditions at: KPNS (PENSACOLA , FL, US) observed 1853 UTC 04 December 2019
Temperature: 20.0°C (68°F)
Dewpoint: 5.6°C (42°F) [RH = 39%]
Pressure (altimeter): 29.98 inches Hg (1015.3 mb)
[Sea-level pressure: 1015.3 mb]
Winds: from the WNW (300 degrees) at 13 MPH (11 knots; 5.7 m/s)
Visibility: 10 or more miles (16+ km)
Ceiling: at least 12,000 feet AGL
Clouds: sky clear below 12,000 feet AGL
Weather: no significant weather observed at this time

METAR text: KPNS 041753Z VRB03KT 10SM CLR 18/07 A3000 RMK AO2 SLP162 T01830067 10189 20061 58012
Conditions at: KPNS (PENSACOLA , FL, US) observed 1753 UTC 04 December 2019
Temperature: 18.3°C (65°F)
Dewpoint: 6.7°C (44°F) [RH = 47%]
Pressure (altimeter): 30.00 inches Hg (1016.0 mb)
[Sea-level pressure: 1016.2 mb]
Winds: variable direction winds at 3 MPH (3 knots; 1.5 m/s)
Visibility: 10 or more miles (16+ km)
Ceiling: at least 12,000 feet AGL
Clouds: sky clear below 12,000 feet AGL
Weather: no significant weather observed at this time

METAR text: KPNS 041653Z 34006KT 10SM CLR 17/07 A3003 RMK AO2 SLP172 T01670072
Conditions at: KPNS (PENSACOLA , FL, US) observed 1653 UTC 04 December 2019
Temperature: 16.7°C (62°F)
Dewpoint: 7.2°C (45°F) [RH = 53%]
Pressure (altimeter): 30.03 inches Hg (1017.0 mb)
[Sea-level pressure: 1017.2 mb]
Winds: from the NNW (340 degrees) at 7 MPH (6 knots; 3.1 m/s)
Visibility: 10 or more miles (16+ km)
Ceiling: at least 12,000 feet AGL
Clouds: sky clear below 12,000 feet AGL
Weather: no significant weather observed at this time

METAR text: KPNS 041553Z 33009KT 10SM CLR 16/08 A3004 RMK AO2 SLP175 T01560083
Conditions at: KPNS (PENSACOLA , FL, US) observed 1553 UTC 04 December 2019
Temperature: 15.6°C (60°F)
Dewpoint: 8.3°C (47°F) [RH = 62%]
Pressure (altimeter): 30.04 inches Hg (1017.4 mb)
[Sea-level pressure: 1017.5 mb]
Winds: from the NNW (330 degrees) at 10 MPH (9 knots; 4.6 m/s)
Visibility: 10 or more miles (16+ km)
Ceiling: at least 12,000 feet AGL
Clouds: sky clear below 12,000 feet AGL
Weather: no significant weather observed at this time

Forecast for: KPNS (PENSACOLA , FL, US)
Text: KPNS 052322Z 0600/0624 VRB03KT P6SM BKN150 BKN250
Forecast period: 0000 to 1800 UTC 06 December 2019
Forecast type: FROM: standard forecast or significant change
Winds: variable direction winds at 3 MPH (3 knots; 1.5 m/s)
Visibility: 6 or more miles 10+ km)
Ceiling: 15000 feet AGL
Clouds: broken clouds at 15000 feet AGL
broken clouds at 25000 feet AGL
Weather: no significant weather forecast for this period
Text: FM061800 21005KT P6SM BKN040
Forecast period: 1800 UTC 06 December 2019 to 0000 UTC 07 December 2019
Forecast type: FROM: standard forecast or significant change
Winds: from the SSW (210 degrees) at 6 MPH (5 knots; 2.6 m/s)
Visibility: 6 or more miles 10+ km)
Ceiling: 4000 feet AGL
Clouds: broken clouds at 4000 feet AGL
Weather: no significant weather forecast for this period
Text: PROB30 0618/0624 4SM SHRA OVC025
Forecast period: 1800 UTC 06 December 2019 to 0000 UTC 07 December 2019
Forecast type: PROBABLE: 30 percent likelihood of the following during this time
Visibility: 4 miles (6 km)
Ceiling: 2500 feet AGL
Clouds: overcast cloud deck at 2500 feet AGL
Weather: SHRA  (rain showers)